.
WxDataArchive / Data Records for 2007-03-11
2007-03-10 March 2007 2007-03-12

Data Records for Sunday, 11 March 2007

Time	Temp	Chill	HIndex	Humid	Dewpt	 Wind 	HiWind	WindDir	Rain 	Barom 
-----	----	-----	------	-----	-----	------	------	-------	-----	----- 
00:00	28.8	28.8	28.8	74	21.6	0	0	---	0.00	30.293 
00:05	28.7	28.7	28.7	75	21.8	0	0	---	0.00	30.294 
00:10	28.7	28.7	28.7	75	21.8	0	0	---	0.00	30.294 
00:15	28.5	28.5	28.5	75	21.6	0	0	---	0.00	30.295 
00:20	28.4	28.4	28.4	75	21.5	0	0	---	0.00	30.296 
00:25	28.1	28.1	28.1	75	21.2	0	0	---	0.00	30.298 
00:30	27.9	27.9	27.9	76	21.3	0	0	---	0.00	30.298 
00:35	27.9	27.9	27.9	77	21.6	0	0	---	0.00	30.298 
00:40	28.1	28.1	28.1	77	21.8	0	0	---	0.00	30.299 
00:45	28.1	28.1	28.1	77	21.8	0	0	---	0.00	30.299 
00:50	28.1	28.1	28.1	76	21.5	0	0	---	0.00	30.300 
00:55	28.1	28.1	28.1	76	21.5	0	0	---	0.00	30.301 
01:00	28.2	28.2	28.2	76	21.6	0	0	---	0.00	30.301 
01:05	28.2	28.2	28.2	76	21.6	0	0	---	0.00	30.302 
01:10	28.4	28.4	28.4	76	21.8	0	0	---	0.00	30.303 
01:15	28.4	28.4	28.4	76	21.8	0	0	---	0.00	30.304 
01:20	28.2	28.2	28.2	75	21.3	0	0	---	0.00	30.308 
01:25	28.4	28.4	28.4	75	21.5	0	0	---	0.00	30.309 
01:30	28.4	28.4	28.4	75	21.5	0	0	---	0.00	30.312 
01:35	28.4	28.4	28.4	75	21.5	0	0	---	0.00	30.313 
01:40	28.5	28.5	28.5	75	21.6	0	0	---	0.00	30.312 
01:45	28.7	28.7	28.7	75	21.8	0	0	---	0.00	30.312 
01:50	28.7	28.7	28.7	74	21.5	0	0	---	0.00	30.312 
01:55	28.5	28.5	28.5	74	21.3	0	0	---	0.00	30.312 
03:00	28.5	28.5	28.5	74	21.3	0	0	---	0.00	30.312 
03:05	28.4	28.4	28.4	75	21.5	0	0	---	0.00	30.313 
03:10	28.4	28.4	28.4	75	21.5	0	0	---	0.00	30.316 
03:15	28.1	28.1	28.1	75	21.2	0	0	---	0.00	30.316 
03:20	27.9	27.9	27.9	75	21.0	0	0	---	0.00	30.318 
03:25	27.8	27.8	27.8	76	21.2	0	0	---	0.00	30.319 
03:30	27.6	27.6	27.6	77	21.4	0	0	---	0.00	30.319 
03:35	27.6	27.6	27.6	77	21.4	0	0	---	0.00	30.319 
03:40	27.6	27.6	27.6	77	21.4	0	0	---	0.00	30.317 
03:45	27.5	27.5	27.5	77	21.3	0	0	---	0.00	30.316 
03:50	27.3	27.3	27.3	77	21.1	0	0	---	0.00	30.317 
03:55	27.5	27.5	27.5	77	21.3	0	0	---	0.00	30.320 
04:00	26.3	26.3	26.3	81	21.3	0	0	---	0.00	30.320 
04:05	26.6	26.6	26.6	80	21.3	0	0	---	0.00	30.319 
04:10	26.7	26.7	26.7	80	21.4	0	0	---	0.00	30.322 
04:15	26.7	26.7	26.7	80	21.4	0	0	---	0.00	30.326 
04:20	26.7	26.7	26.7	80	21.4	0	0	---	0.00	30.326 
04:25	27.0	27.0	27.0	80	21.7	0	0	---	0.00	30.328 
04:30	27.2	27.2	27.2	80	21.9	0	0	---	0.00	30.331 
04:35	27.3	27.3	27.3	79	21.7	0	0	---	0.00	30.331 
04:40	27.3	27.3	27.3	79	21.7	0	0	---	0.00	30.332 
04:45	27.5	27.5	27.5	79	21.9	0	0	---	0.00	30.332 
04:50	27.5	27.5	27.5	78	21.6	0	0	---	0.00	30.334 
04:55	27.3	27.3	27.3	79	21.7	0	0	---	0.00	30.339 
05:00	27.3	27.3	27.3	78	21.4	0	0	---	0.00	30.341 
05:05	27.0	27.0	27.0	78	21.1	0	0	---	0.00	30.344 
05:10	26.6	26.6	26.6	78	20.7	0	0	---	0.00	30.348 
05:15	26.3	26.3	26.3	79	20.7	0	0	---	0.00	30.353 
05:20	26.0	26.0	26.0	79	20.4	0	0	---	0.00	30.357 
05:25	25.6	25.6	25.6	80	20.3	0	0	---	0.00	30.361 
05:30	25.3	25.3	25.3	81	20.3	0	0	---	0.00	30.364 
05:35	25.1	25.1	25.1	81	20.1	0	0	---	0.00	30.366 
05:40	24.8	24.8	24.8	81	19.8	0	0	---	0.00	30.367 
05:45	24.5	24.5	24.5	82	19.8	0	0	---	0.00	30.368 
05:50	24.4	24.4	24.4	83	20.0	0	0	---	0.00	30.370 
05:55	24.2	24.2	24.2	84	20.1	0	0	---	0.00	30.376 
06:00	24.1	24.1	24.1	84	20.0	0	0	---	0.00	30.380 
06:05	24.1	24.1	24.1	84	20.0	0	0	---	0.00	30.386 
06:10	23.9	23.9	23.9	84	19.8	0	0	---	0.00	30.387 
06:15	23.8	23.8	23.8	84	19.7	0	0	---	0.00	30.390 
06:20	23.8	23.8	23.8	85	20.0	0	0	---	0.00	30.396 
06:25	23.6	23.6	23.6	85	19.8	0	0	---	0.00	30.397 
06:30	23.6	23.6	23.6	85	19.8	0	0	---	0.00	30.398 
06:35	23.6	23.6	23.6	85	19.8	0	0	---	0.00	30.401 
06:40	23.6	23.6	23.6	86	20.0	0	0	---	0.00	30.403 
06:45	23.6	23.6	23.6	86	20.0	0	0	---	0.00	30.403 
06:50	23.5	23.5	23.5	86	19.9	0	0	---	0.00	30.404 
06:55	23.3	23.3	23.3	86	19.7	0	0	---	0.00	30.406 
07:00	23.2	23.2	23.2	86	19.6	0	0	---	0.00	30.409 
07:05	23.2	23.2	23.2	86	19.6	0	0	---	0.00	30.415 
07:10	23.2	23.2	23.2	86	19.6	0	0	---	0.00	30.414 
07:15	23.2	23.2	23.2	87	19.9	0	0	---	0.00	30.415 
07:20	23.3	23.3	23.3	87	20.0	0	0	---	0.00	30.418 
07:25	23.6	23.6	23.6	87	20.3	0	0	---	0.00	30.420 
07:30	23.9	23.9	23.9	87	20.6	0	0	---	0.00	30.421 
07:35	24.4	24.4	24.4	87	21.1	0	0	---	0.00	30.422 
07:40	24.8	24.8	24.8	87	21.5	0	0	---	0.00	30.424 
07:45	25.4	25.4	25.4	87	22.1	0	0	---	0.00	30.427 
07:50	26.1	26.1	26.1	87	22.8	0	0	---	0.00	30.428 
07:55	26.7	26.7	26.7	86	23.1	0	0	---	0.00	30.432 
08:00	27.6	27.6	27.6	85	23.7	0	0	---	0.00	30.432 
08:05	28.4	28.4	28.4	85	24.5	0	0	---	0.00	30.433 
08:10	29.0	29.0	29.0	83	24.5	0	0	---	0.00	30.436 
08:15	29.8	29.8	29.8	83	25.3	0	0	---	0.00	30.433 
08:20	30.7	30.7	30.7	81	25.6	0	0	---	0.00	30.434 
08:25	32.1	32.1	32.1	78	26.0	0	4	270	0.00	30.433 
08:30	33.7	33.7	33.7	73	26.0	0	4	270	0.00	30.437 
08:35	34.9	34.9	34.9	71	26.5	0	1	270	0.00	30.441 
08:40	35.6	35.6	35.6	68	26.1	0	1	270	0.00	30.440 
08:45	36.3	36.3	36.3	66	26.0	1	3	315	0.00	30.438 
08:50	36.9	36.9	36.9	65	26.3	0	3	315	0.00	30.438 
08:55	37.3	37.3	37.3	64	26.3	0	2	315	0.00	30.433 
09:00	38.0	38.0	38.0	63	26.5	0	2	315	0.00	30.431 
09:05	38.6	38.6	38.6	62	26.7	0	1	315	0.00	30.436 
09:10	39.5	39.5	39.5	60	26.8	0	2	315	0.00	30.440 
09:15	40.1	40.1	40.1	58	26.5	1	2	315	0.00	30.434 
09:20	40.9	40.9	40.9	55	26.0	1	2	315	0.00	30.433 
09:25	41.9	41.9	41.9	54	26.5	0	1	315	0.00	30.435 
09:30	42.9	42.9	42.9	50	25.6	0	3	0	0.00	30.436 
09:35	43.5	43.5	43.5	47	24.6	0	2	0	0.00	30.435 
09:40	43.9	43.9	43.9	47	25.0	1	2	0	0.00	30.436 
09:45	44.2	44.2	44.2	46	24.7	1	4	22	0.00	30.434 
09:50	44.5	44.5	44.5	46	25.0	0	2	22	0.00	30.435 
09:55	44.9	44.9	44.9	44	24.3	1	4	45	0.00	30.430 
10:00	45.2	45.2	45.2	44	24.6	2	5	90	0.00	30.428 
10:05	45.7	45.7	45.7	45	25.6	1	4	90	0.00	30.435 
10:10	46.0	46.0	46.0	42	24.2	2	5	112	0.00	30.436 
10:15	45.8	45.8	45.8	42	24.0	2	5	90	0.00	30.439 
10:20	46.0	46.0	46.0	46	26.4	1	3	112	0.00	30.442 
10:25	46.0	46.0	46.0	44	25.3	2	4	112	0.00	30.443 
10:30	45.8	45.8	45.8	46	26.2	3	5	112	0.00	30.447 
10:35	46.0	46.0	46.0	43	24.8	1	3	112	0.00	30.448 
10:40	46.4	46.4	46.4	41	24.0	1	5	90	0.00	30.450 
10:45	46.5	46.5	46.5	39	22.9	2	5	90	0.00	30.452 
10:50	46.5	46.5	46.5	39	22.9	3	5	112	0.00	30.455 
10:55	46.7	46.7	46.7	39	23.1	2	5	90	0.00	30.457 
11:00	47.0	47.0	47.0	40	23.9	2	4	90	0.00	30.457 
11:05	47.4	47.4	47.4	40	24.3	1	3	112	0.00	30.462 
11:10	48.2	48.2	48.2	43	26.8	1	3	112	0.00	30.461 
11:15	48.8	48.8	48.8	40	25.6	1	4	112	0.00	30.460 
11:20	48.6	48.6	48.6	40	25.4	1	3	112	0.00	30.461 
11:25	48.8	48.8	48.8	38	24.3	2	6	90	0.00	30.462 
11:30	48.9	48.9	48.9	43	27.4	2	6	90	0.00	30.463 
11:35	48.8	48.8	48.8	39	25.0	2	4	90	0.00	30.462 
11:40	48.8	48.8	48.8	38	24.3	1	5	112	0.00	30.460 
11:45	48.6	48.6	48.6	41	26.0	3	6	112	0.00	30.458 
11:50	48.5	48.5	48.5	39	24.7	2	5	112	0.00	30.456 
11:55	48.8	48.8	48.8	38	24.3	3	7	90	0.00	30.456 
12:00	48.8	48.8	48.8	41	26.2	1	4	90	0.00	30.456 
12:05	49.4	49.4	49.4	43	27.9	2	4	90	0.00	30.458 
12:10	49.5	49.5	49.5	39	25.6	2	5	112	0.00	30.459 
12:15	49.8	49.8	49.8	40	26.5	1	4	112	0.00	30.456 
12:20	49.6	49.6	49.6	37	24.4	2	6	90	0.00	30.457 
12:25	49.8	49.8	49.8	39	25.9	1	4	112	0.00	30.457 
12:30	49.9	49.9	49.9	39	25.9	1	5	45	0.00	30.458 
12:35	49.9	49.9	49.9	36	24.0	1	5	68	0.00	30.456 
12:40	49.9	49.9	49.9	32	21.2	1	4	112	0.00	30.456 
12:45	50.2	50.2	50.2	37	24.9	1	3	112	0.00	30.455 
12:50	50.5	50.5	50.5	38	25.9	2	5	90	0.00	30.450 
12:55	50.7	50.7	50.7	35	24.1	1	3	90	0.00	30.449 
13:00	51.0	51.0	51.0	41	28.1	1	3	45	0.00	30.447 
13:05	51.3	51.3	51.3	34	23.9	2	5	112	0.00	30.443 
13:10	51.3	51.3	51.3	31	21.7	1	3	68	0.00	30.441 
13:15	51.4	51.4	51.4	30	21.0	2	4	112	0.00	30.439 
13:20	51.3	51.3	51.3	33	23.2	2	5	112	0.00	30.435 
13:25	51.3	51.3	51.3	35	24.6	1	3	90	0.00	30.428 
13:30	51.6	51.6	51.6	32	22.7	0	3	90	0.00	30.426 
13:35	51.7	51.7	51.7	35	24.9	2	6	90	0.00	30.424 
13:40	51.9	51.9	51.9	31	22.2	0	2	68	0.00	30.421 
13:45	52.2	52.2	52.2	32	23.2	1	5	112	0.00	30.420 
13:50	51.7	51.7	51.7	31	22.1	3	5	112	0.00	30.415 
13:55	51.4	51.4	51.4	30	21.0	2	4	112	0.00	30.411 
14:00	51.7	51.7	51.7	32	22.8	1	3	112	0.00	30.410 
14:05	51.9	51.9	51.9	32	23.0	2	4	112	0.00	30.410 
14:10	52.2	52.2	52.2	30	21.7	1	4	112	0.00	30.411 
14:15	52.5	52.5	52.5	30	22.0	1	3	135	0.00	30.409 
14:20	52.8	52.8	52.8	31	23.0	1	5	135	0.00	30.408 
14:25	52.8	52.8	52.8	31	23.0	2	4	112	0.00	30.405 
14:30	52.5	52.5	52.5	28	20.4	3	6	90	0.00	30.399 
14:35	52.2	52.2	52.2	28	20.1	2	5	112	0.00	30.397 
14:40	52.2	52.2	52.2	27	19.2	1	3	112	0.00	30.398 
14:45	52.3	52.3	52.3	29	21.0	1	3	112	0.00	30.398 
14:50	52.5	52.5	52.5	28	20.4	1	3	112	0.00	30.395 
14:55	53.2	53.2	53.2	31	23.4	1	4	112	0.00	30.396 
15:00	53.3	53.3	53.3	29	21.9	2	3	112	0.00	30.395 
15:05	53.5	53.5	53.5	33	25.1	0	2	90	0.00	30.396 
15:10	53.8	53.8	53.8	32	24.6	1	3	112	0.00	30.394 
15:15	53.6	53.6	53.6	29	22.1	3	5	112	0.00	30.395 
15:20	53.3	53.3	53.3	29	21.9	1	3	112	0.00	30.396 
15:25	53.5	53.5	53.5	29	22.0	1	3	112	0.00	30.395 
15:30	53.6	53.6	53.6	31	23.7	2	6	112	0.00	30.390 
15:35	53.8	53.8	53.8	29	22.3	2	6	112	0.00	30.393 
15:40	53.9	53.9	53.9	30	23.2	1	4	112	0.00	30.393 
15:45	53.9	53.9	53.9	28	21.6	1	4	112	0.00	30.393 
15:50	54.1	54.1	54.1	32	24.9	1	2	112	0.00	30.394 
15:55	54.1	54.1	54.1	30	23.4	1	5	90	0.00	30.394 
16:00	54.1	54.1	54.1	30	23.4	1	4	90	0.00	30.393 
16:05	54.1	54.1	54.1	31	24.1	2	4	135	0.00	30.393 
16:10	53.9	53.9	53.9	29	22.4	2	4	112	0.00	30.392 
16:15	53.5	53.5	53.5	30	22.8	1	4	112	0.00	30.392 
16:20	53.2	53.2	53.2	30	22.6	1	2	112	0.00	30.394 
16:25	53.2	53.2	53.2	30	22.6	1	3	112	0.00	30.392 
16:30	53.1	53.1	53.1	30	22.5	1	3	112	0.00	30.391 
16:35	53.1	53.1	53.1	31	23.3	1	3	112	0.00	30.386 
16:40	52.9	52.9	52.9	30	22.3	1	3	112	0.00	30.382 
16:45	52.8	52.8	52.8	31	23.0	2	4	112	0.00	30.379 
16:50	52.6	52.6	52.6	32	23.6	1	3	112	0.00	30.378 
16:55	52.5	52.5	52.5	33	24.2	2	5	112	0.00	30.376 
17:00	52.5	52.5	52.5	32	23.5	1	3	112	0.00	30.376 
17:05	52.5	52.5	52.5	33	24.2	2	3	112	0.00	30.379 
17:10	52.5	52.5	52.5	31	22.8	2	6	112	0.00	30.374 
17:15	52.5	52.5	52.5	32	23.5	1	6	112	0.00	30.372 
17:20	52.5	52.5	52.5	33	24.2	1	3	112	0.00	30.371 
17:25	52.3	52.3	52.3	33	24.1	1	3	112	0.00	30.372 
17:30	52.2	52.2	52.2	31	22.5	1	2	135	0.00	30.371 
17:35	52.2	52.2	52.2	31	22.5	1	3	135	0.00	30.371 
17:40	52.0	52.0	52.0	32	23.1	1	4	135	0.00	30.370 
17:45	51.9	51.9	51.9	34	24.4	0	2	135	0.00	30.369 
17:50	51.7	51.7	51.7	34	24.2	0	2	135	0.00	30.369 
17:55	51.4	51.4	51.4	35	24.7	0	1	135	0.00	30.371 
18:00	51.1	51.1	51.1	37	25.7	0	2	135	0.00	30.371 
18:05	50.7	50.7	50.7	38	26.0	0	1	135	0.00	30.372 
18:10	50.2	50.2	50.2	38	25.6	0	1	135	0.00	30.375 
18:15	49.8	49.8	49.8	40	26.5	0	1	135	0.00	30.375 
18:20	49.5	49.5	49.5	39	25.6	0	1	135	0.00	30.375 
18:25	49.1	49.1	49.1	40	25.8	0	1	135	0.00	30.375 
18:30	48.6	48.6	48.6	40	25.4	0	0	---	0.00	30.375 
18:35	48.2	48.2	48.2	41	25.6	0	1	135	0.00	30.373 
18:40	47.7	47.7	47.7	42	25.7	0	0	---	0.00	30.375 
18:45	47.1	47.1	47.1	43	25.8	0	0	---	0.00	30.374 
18:50	46.5	46.5	46.5	42	24.7	0	0	---	0.00	30.378 
18:55	45.8	45.8	45.8	44	25.1	0	0	---	0.00	30.378 
19:00	45.1	45.1	45.1	45	25.0	0	0	---	0.00	30.375 
19:05	44.3	44.3	44.3	48	25.9	0	0	---	0.00	30.370 
19:10	43.6	43.6	43.6	49	25.7	0	0	---	0.00	30.369 
19:15	43.2	43.2	43.2	49	25.3	0	0	---	0.00	30.370 
19:20	42.8	42.8	42.8	50	25.5	0	0	---	0.00	30.369 
19:25	42.2	42.2	42.2	51	25.4	0	0	---	0.00	30.369 
19:30	41.6	41.6	41.6	52	25.3	0	0	---	0.00	30.367 
19:35	41.2	41.2	41.2	53	25.4	0	0	---	0.00	30.367 
19:40	40.8	40.8	40.8	53	25.0	0	0	---	0.00	30.367 
19:45	40.3	40.3	40.3	54	25.0	0	0	---	0.00	30.369 
19:50	39.9	39.9	39.9	57	25.9	0	0	---	0.00	30.371 
19:55	39.5	39.5	39.5	56	25.1	0	0	---	0.00	30.372 
20:00	38.9	38.9	38.9	56	24.6	0	0	---	0.00	30.375 
20:05	38.5	38.5	38.5	56	24.2	0	0	---	0.00	30.367 
20:10	38.0	38.0	38.0	57	24.1	0	0	---	0.00	30.368 
20:15	37.8	37.8	37.8	58	24.4	0	0	---	0.00	30.367 
20:20	37.5	37.5	37.5	60	24.9	0	0	---	0.00	30.369 
20:25	37.2	37.2	37.2	61	25.0	0	0	---	0.00	30.371 
20:30	36.8	36.8	36.8	61	24.6	0	0	---	0.00	30.373 
20:35	36.5	36.5	36.5	61	24.3	0	0	---	0.00	30.374 
20:40	36.0	36.0	36.0	63	24.6	0	0	---	0.00	30.373 
20:45	35.8	35.8	35.8	63	24.5	0	0	---	0.00	30.373 
20:50	35.5	35.5	35.5	63	24.2	0	0	---	0.00	30.375 
20:55	35.2	35.2	35.2	63	23.9	0	0	---	0.00	30.374 
21:00	35.0	35.0	35.0	65	24.4	0	0	---	0.00	30.373 
21:05	34.9	34.9	34.9	66	24.7	0	0	---	0.00	30.365 
21:10	34.7	34.7	34.7	66	24.5	0	0	---	0.00	30.366 
21:15	34.4	34.4	34.4	66	24.2	0	0	---	0.00	30.369 
21:20	34.1	34.1	34.1	66	23.9	0	0	---	0.00	30.369 
21:25	33.8	33.8	33.8	67	24.0	0	0	---	0.00	30.367 
21:30	33.5	33.5	33.5	68	24.1	0	0	---	0.00	30.366 
21:35	33.4	33.4	33.4	69	24.3	0	0	---	0.00	30.366 
21:40	33.2	33.2	33.2	69	24.2	0	0	---	0.00	30.367 
21:45	33.1	33.1	33.1	70	24.4	0	0	---	0.00	30.366 
21:50	32.8	32.8	32.8	70	24.1	0	0	---	0.00	30.365 
21:55	32.5	32.5	32.5	70	23.8	0	0	---	0.00	30.366 
22:00	32.2	32.2	32.2	71	23.9	0	0	---	0.00	30.368 
22:05	31.9	31.9	31.9	71	23.6	0	0	---	0.00	30.365 
22:10	31.6	31.6	31.6	72	23.6	0	0	---	0.00	30.365 
22:15	31.3	31.3	31.3	73	23.7	0	0	---	0.00	30.363 
22:20	31.0	31.0	31.0	73	23.4	0	0	---	0.00	30.364 
22:25	30.9	30.9	30.9	74	23.6	0	0	---	0.00	30.364 
22:30	30.7	30.7	30.7	74	23.4	0	0	---	0.00	30.363 
22:35	30.6	30.6	30.6	75	23.6	0	0	---	0.00	30.362 
22:40	30.4	30.4	30.4	74	23.1	0	0	---	0.00	30.359 
22:45	30.1	30.1	30.1	75	23.2	0	0	---	0.00	30.356 
22:50	29.8	29.8	29.8	76	23.2	0	0	---	0.00	30.357 
22:55	29.7	29.7	29.7	76	23.1	0	0	---	0.00	30.350 
23:00	29.4	29.4	29.4	77	23.1	0	0	---	0.00	30.346 
23:05	29.3	29.3	29.3	77	23.0	0	0	---	0.00	30.341 
23:10	29.3	29.3	29.3	78	23.3	0	0	---	0.00	30.339 
23:15	29.1	29.1	29.1	78	23.1	0	0	---	0.00	30.339 
23:20	29.3	29.3	29.3	78	23.3	0	0	---	0.00	30.336 
23:25	29.1	29.1	29.1	77	22.8	0	0	---	0.00	30.334 
23:30	29.0	29.0	29.0	78	23.0	0	0	---	0.00	30.332 
23:35	28.8	28.8	28.8	78	22.8	0	0	---	0.00	30.331 
23:40	28.8	28.8	28.8	78	22.8	0	0	---	0.00	30.327 
23:45	28.7	28.7	28.7	78	22.7	0	0	---	0.00	30.325 
23:50	28.5	28.5	28.5	79	22.8	0	0	---	0.00	30.319 
23:55	28.4	28.4	28.4	79	22.7	0	0	---	0.00	30.319 
20070312 00:00	28.2	28.2	28.2	79	22.5	0	0	---	0.00	30.319 
20070312 00:05	28.2	28.2	28.2	79	22.5	0	0	---	0.00	30.316 
20070312 00:10	28.2	28.2	28.2	80	22.8	0	0	---	0.00	30.315 
20070312 00:15	28.2	28.2	28.2	80	22.8	0	0	---	0.00	30.315 
20070312 00:20	28.1	28.1	28.1	79	22.4	0	0	---	0.00	30.313 
20070312 00:25	27.9	27.9	27.9	80	22.5	0	0	---	0.00	30.312 
20070312 00:30	27.8	27.8	27.8	80	22.4	0	0	---	0.00	30.307 
20070312 00:35	27.6	27.6	27.6	80	22.3	0	0	---	0.00	30.303 
20070312 00:40	27.6	27.6	27.6	81	22.5	0	0	---	0.00	30.302 
20070312 00:45	27.5	27.5	27.5	81	22.4	0	0	---	0.00	30.304 
20070312 00:50	27.5	27.5	27.5	81	22.4	0	0	---	0.00	30.300 
20070312 00:55	27.6	27.6	27.6	81	22.5	0	0	---	0.00	30.297 

CoCoRaHS
IN-AL-39
A2 Web Hosting
Creative Commons License
GoDaddy
Look for:

loaded 2017-12-13 20:04:27 • last modified 2010-11-18 10:43:29
Privacy PolicyDisclaimer
• wx.awcolley.com is powered by PmWiki v.2002016 •
• all content (unless otherwise noted) © 2017 A W Colley